createdAt,value
2023-03-16T00:00:56.642Z,96492.83
2023-03-16T00:03:24.578Z,96488.94
2023-03-16T00:05:54.138Z,96498.19
2023-03-16T00:08:21.950Z,96498.11
2023-03-16T00:10:52.418Z,96500.95
2023-03-16T00:13:23.674Z,96492.30
2023-03-16T00:15:55.169Z,96488.93
2023-03-16T00:18:28.307Z,96487.37
2023-03-16T00:21:02.480Z,96491.70
2023-03-16T00:23:32.078Z,96493.03
2023-03-16T00:26:02.498Z,96494.59
2023-03-16T00:28:34.167Z,96498.27
2023-03-16T00:31:07.400Z,96496.86
2023-03-16T00:33:35.207Z,96494.91
2023-03-16T00:36:08.786Z,96496.23
2023-03-16T00:38:40.082Z,96493.80
2023-03-16T00:41:09.478Z,96496.47
2023-03-16T00:43:39.662Z,96493.34
2023-03-16T00:46:11.319Z,96488.93
2023-03-16T00:48:42.277Z,96500.08
2023-03-16T00:51:14.972Z,96517.42
2023-03-16T00:53:45.179Z,96518.05
2023-03-16T00:56:13.497Z,96517.04
2023-03-16T00:58:42.741Z,96519.70
2023-03-16T01:01:18.963Z,96514.89
2023-03-16T01:03:47.070Z,96516.72
2023-03-16T01:06:17.362Z,96518.83
2023-03-16T01:08:45.216Z,96519.54
2023-03-16T01:11:20.489Z,96521.03
2023-03-16T01:13:52.335Z,96521.26
2023-03-16T01:16:22.107Z,96520.96
2023-03-16T01:18:52.234Z,96523.30
2023-03-16T01:21:21.206Z,96516.86
2023-03-16T01:23:50.392Z,96524.56
2023-03-16T01:26:20.088Z,96522.68
2023-03-16T01:28:48.970Z,96524.56
2023-03-16T01:31:16.678Z,96517.87
2023-03-16T01:33:44.658Z,96523.38
2023-03-16T01:36:17.590Z,96530.37
2023-03-16T01:38:47.650Z,96535.94
2023-03-16T01:41:16.072Z,96543.23
2023-03-16T01:43:43.896Z,96536.95
2023-03-16T01:46:25.363Z,96535.39
2023-03-16T01:49:29.205Z,96542.68
2023-03-16T01:52:02.477Z,96539.07
2023-03-16T01:54:46.349Z,96541.52
2023-03-16T01:57:24.064Z,96544.25
2023-03-16T02:00:22.943Z,96548.57
2023-03-16T02:03:00.326Z,96548.70
2023-03-16T02:05:47.294Z,96551.20
2023-03-16T02:08:17.930Z,96548.05
2023-03-16T02:10:46.609Z,96556.93
2023-03-16T02:13:15.029Z,96558.33
2023-03-16T02:15:43.146Z,96562.39
2023-03-16T02:18:11.714Z,96567.88
2023-03-16T02:21:01.778Z,96571.48
2023-03-16T02:23:32.201Z,96570.83
2023-03-16T02:26:26.854Z,96573.16
2023-03-16T02:29:31.348Z,96575.42
2023-03-16T02:32:02.436Z,96578.38
2023-03-16T02:34:30.438Z,96581.05
2023-03-16T02:36:59.699Z,96582.16
2023-03-16T02:39:28.038Z,96587.71
2023-03-16T02:41:55.915Z,96585.59
2023-03-16T02:44:33.145Z,96578.16
2023-03-16T02:47:09.390Z,96576.50
2023-03-16T02:49:40.977Z,96586.55
2023-03-16T02:52:09.681Z,96583.27
2023-03-16T02:54:38.500Z,96592.60
2023-03-16T02:57:06.618Z,96592.60
2023-03-16T02:59:35.061Z,96597.21
2023-03-16T03:02:03.536Z,96597.77
2023-03-16T03:04:32.456Z,96597.99
2023-03-16T03:07:02.284Z,96600.92
2023-03-16T03:09:32.707Z,96607.98
2023-03-16T03:12:00.701Z,96619.98
2023-03-16T03:14:28.427Z,96619.14
2023-03-16T03:16:56.236Z,96611.92
2023-03-16T03:19:24.062Z,96613.80
2023-03-16T03:21:53.871Z,96628.76
2023-03-16T03:24:21.755Z,96621.63
2023-03-16T03:26:49.652Z,96618.70
2023-03-16T03:29:19.817Z,96631.86
2023-03-16T03:31:47.678Z,96632.96
2023-03-16T03:34:16.132Z,96630.36
2023-03-16T03:36:43.825Z,96638.91
2023-03-16T03:39:18.872Z,96644.84
2023-03-16T03:41:54.856Z,96641.22
2023-03-16T03:44:24.723Z,96651.39
2023-03-16T03:46:53.031Z,96656.25
2023-03-16T03:49:21.254Z,96662.97
2023-03-16T03:51:49.609Z,96668.62
2023-03-16T03:54:19.422Z,96662.02
2023-03-16T03:56:54.947Z,96663.22
2023-03-16T03:59:22.776Z,96666.20
2023-03-16T04:02:10.721Z,96665.80
2023-03-16T04:04:41.975Z,96663.23
2023-03-16T04:07:11.101Z,96665.48
2023-03-16T04:09:39.515Z,96673.58
2023-03-16T04:12:08.070Z,96677.66
2023-03-16T04:14:35.704Z,96680.66
2023-03-16T04:17:07.670Z,96683.22
2023-03-16T04:19:36.843Z,96689.38
2023-03-16T04:22:06.095Z,96686.03
2023-03-16T04:24:33.882Z,96687.18
2023-03-16T04:27:03.376Z,96692.03
2023-03-16T04:29:31.499Z,96693.66
2023-03-16T04:31:59.672Z,96695.84
2023-03-16T04:34:27.914Z,96695.84
2023-03-16T04:36:57.510Z,96702.73
2023-03-16T04:39:25.190Z,96715.58
2023-03-16T04:41:54.981Z,96714.72
2023-03-16T04:44:25.379Z,96721.14
2023-03-16T04:46:59.015Z,96730.92
2023-03-16T04:49:28.525Z,96737.53
2023-03-16T04:51:57.343Z,96740.98
2023-03-16T04:54:25.640Z,96740.98
2023-03-16T04:56:53.586Z,96743.05
2023-03-16T04:59:29.767Z,96745.94
2023-03-16T05:02:03.624Z,96750.16
2023-03-16T05:04:31.740Z,96755.17
2023-03-16T05:06:59.579Z,96754.58
2023-03-16T05:09:29.322Z,96758.25
2023-03-16T05:11:57.162Z,96760.33
2023-03-16T05:14:24.969Z,96762.63
2023-03-16T05:16:57.220Z,96763.95
2023-03-16T05:19:25.038Z,96768.73
2023-03-16T05:21:52.837Z,96778.01
2023-03-16T05:24:20.732Z,96776.13
2023-03-16T05:26:48.661Z,96783.84
2023-03-16T05:29:16.764Z,96779.53
2023-03-16T05:31:49.153Z,96788.80
2023-03-16T05:34:18.411Z,96791.94
2023-03-16T05:36:47.752Z,96799.09
2023-03-16T05:39:16.536Z,96794.81
2023-03-16T05:41:46.266Z,96804.06
2023-03-16T05:44:15.946Z,96817.02
2023-03-16T05:46:50.635Z,96817.48
2023-03-16T05:49:18.650Z,96822.26
2023-03-16T05:51:46.616Z,96823.59
2023-03-16T05:54:14.378Z,96831.86
2023-03-16T05:56:46.114Z,96840.59
2023-03-16T05:59:16.935Z,96836.59
2023-03-16T06:01:46.193Z,96849.64
2023-03-16T06:04:14.034Z,96859.84
2023-03-16T06:06:41.802Z,96856.20
2023-03-16T06:09:14.586Z,96862.08
2023-03-16T06:11:43.566Z,96860.98
2023-03-16T06:14:12.111Z,96870.94
2023-03-16T06:16:40.337Z,96878.66
2023-03-16T06:19:08.774Z,96881.09
2023-03-16T06:21:36.638Z,96882.73
2023-03-16T06:24:08.329Z,96894.22
2023-03-16T06:26:37.160Z,96895.98
2023-03-16T06:29:06.657Z,96898.62
2023-03-16T06:31:36.014Z,96896.06
2023-03-16T06:34:07.907Z,96898.77
2023-03-16T06:36:37.481Z,96899.36
2023-03-16T06:39:06.574Z,96901.00
2023-03-16T06:41:35.984Z,96914.35
2023-03-16T06:44:05.688Z,96915.24
2023-03-16T06:46:34.284Z,96919.08
2023-03-16T06:49:03.972Z,96925.49
2023-03-16T06:51:31.777Z,96929.77
2023-03-16T06:53:59.256Z,96927.24
2023-03-16T06:56:27.467Z,96923.49
2023-03-16T06:58:57.638Z,96927.95
2023-03-16T07:01:25.282Z,96930.75
2023-03-16T07:03:56.300Z,96933.53
2023-03-16T07:06:47.039Z,96938.20
2023-03-16T07:09:35.282Z,96939.26
2023-03-16T07:12:03.655Z,96945.33
2023-03-16T07:14:31.993Z,96943.89
2023-03-16T07:17:01.162Z,96948.59
2023-03-16T07:19:29.545Z,96949.53
2023-03-16T07:21:59.285Z,96949.06
2023-03-16T07:24:27.813Z,96953.72
2023-03-16T07:26:55.432Z,96960.70
2023-03-16T07:29:28.439Z,96959.20
2023-03-16T07:31:56.573Z,96961.97
2023-03-16T07:34:26.357Z,96968.23
2023-03-16T07:36:56.010Z,96969.36
2023-03-16T07:39:25.057Z,96972.59
2023-03-16T07:41:54.848Z,96968.05
2023-03-16T07:44:24.305Z,96973.06
2023-03-16T07:46:54.074Z,96968.38
2023-03-16T07:49:23.830Z,96976.33
2023-03-16T07:51:53.499Z,96978.81
2023-03-16T07:54:23.917Z,96975.29
2023-03-16T07:56:52.026Z,96980.34
2023-03-16T07:59:25.078Z,96982.84
2023-03-16T08:01:52.968Z,96987.91
2023-03-16T08:04:21.744Z,96986.23
2023-03-16T08:06:56.352Z,96992.97
2023-03-16T08:09:25.719Z,96991.08
2023-03-16T08:11:54.142Z,96999.88
2023-03-16T08:14:23.265Z,97001.21
2023-03-16T08:17:03.338Z,97001.21
2023-03-16T08:19:32.021Z,97004.98
2023-03-16T08:22:03.116Z,97008.98
2023-03-16T08:24:32.928Z,97012.20
2023-03-16T08:27:01.027Z,97013.88
2023-03-16T08:29:29.562Z,97015.53
2023-03-16T08:31:57.343Z,97022.44
2023-03-16T08:34:28.300Z,97013.59
2023-03-16T08:36:56.220Z,97021.05
2023-03-16T08:39:24.621Z,97022.98
2023-03-16T08:41:53.600Z,97020.14
2023-03-16T08:44:26.873Z,97026.58
2023-03-16T08:46:55.249Z,97028.15
2023-03-16T08:49:23.654Z,97028.02
2023-03-16T08:51:53.757Z,97031.50
2023-03-16T08:54:22.370Z,97035.00
2023-03-16T08:56:51.398Z,97041.31
2023-03-16T08:59:29.779Z,97045.22
2023-03-16T09:01:53.139Z,97045.69
2023-03-16T09:04:21.564Z,97048.36
2023-03-16T09:07:05.725Z,97054.66
2023-03-16T09:09:20.907Z,97055.95
2023-03-16T09:11:49.523Z,97060.08
2023-03-16T09:14:18.499Z,97062.25
2023-03-16T09:16:46.389Z,97072.70
2023-03-16T09:19:14.313Z,97074.77
2023-03-16T09:21:42.083Z,97075.95
2023-03-16T09:24:10.218Z,97082.31
2023-03-16T09:26:39.537Z,97083.96
2023-03-16T09:29:07.595Z,97092.29
2023-03-16T09:31:35.766Z,97094.96
2023-03-16T09:34:04.370Z,97108.55
2023-03-16T09:36:33.232Z,97109.65
2023-03-16T09:39:02.802Z,97112.84
2023-03-16T09:41:50.445Z,97119.61
2023-03-16T09:44:42.172Z,97119.11
2023-03-16T09:47:12.019Z,97120.77
2023-03-16T09:49:48.949Z,97121.11
2023-03-16T09:52:40.166Z,97124.76
2023-03-16T09:55:33.154Z,97122.82
2023-03-16T09:58:17.246Z,97124.16
2023-03-16T10:01:03.470Z,97129.13
2023-03-16T10:04:12.803Z,97126.33
2023-03-16T10:06:46.311Z,97134.11
2023-03-16T10:09:33.762Z,97135.21
2023-03-16T10:12:04.676Z,97134.52
2023-03-16T10:14:49.340Z,97133.14
2023-03-16T10:17:23.952Z,97144.38
2023-03-16T10:19:57.708Z,97146.86
2023-03-16T10:22:33.140Z,97149.48
2023-03-16T10:25:25.869Z,97150.27
2023-03-16T10:27:54.001Z,97154.14
2023-03-16T10:30:34.919Z,97159.72
2023-03-16T10:33:26.074Z,97165.80
2023-03-16T10:35:59.498Z,97162.39
2023-03-16T10:39:03.902Z,97164.55
2023-03-16T10:41:36.290Z,97165.61
2023-03-16T10:44:16.960Z,97166.77
2023-03-16T10:47:03.939Z,97166.12
2023-03-16T10:49:45.282Z,97167.03
2023-03-16T10:52:28.744Z,97169.89
2023-03-16T10:55:00.620Z,97169.81
2023-03-16T10:57:35.312Z,97175.70
2023-03-16T11:00:15.152Z,97177.36
2023-03-16T11:02:43.550Z,97171.78
2023-03-16T11:05:30.737Z,97171.92
2023-03-16T11:08:04.064Z,97177.77
2023-03-16T11:10:49.364Z,97175.59
2023-03-16T11:13:20.436Z,97177.27
2023-03-16T11:16:19.688Z,97179.66
2023-03-16T11:18:58.761Z,97178.98
2023-03-16T11:22:18.482Z,97179.80
2023-03-16T11:25:05.889Z,97181.13
2023-03-16T11:28:10.817Z,97180.58
2023-03-16T11:31:21.762Z,97179.61
2023-03-16T11:33:50.008Z,97183.67
2023-03-16T11:36:50.513Z,97181.78
2023-03-16T11:39:32.296Z,97185.38
2023-03-16T11:42:25.616Z,97186.89
2023-03-16T11:45:17.230Z,97190.30
2023-03-16T11:48:16.696Z,97193.70
2023-03-16T11:51:09.869Z,97191.58
2023-03-16T11:54:01.556Z,97192.19
2023-03-16T11:56:37.910Z,97201.04
2023-03-16T11:59:20.176Z,97198.45
2023-03-16T12:02:14.848Z,97205.59
2023-03-16T12:05:27.873Z,97206.47
2023-03-16T12:08:07.431Z,97206.94
2023-03-16T12:10:53.758Z,97215.78
2023-03-16T12:14:14.002Z,97210.98
2023-03-16T12:17:04.363Z,97209.88
2023-03-16T12:19:55.594Z,97213.52
2023-03-16T12:22:42.240Z,97218.86
2023-03-16T12:25:20.464Z,97215.35
2023-03-16T12:27:53.453Z,97220.69
2023-03-16T12:30:50.650Z,97214.75
2023-03-16T12:33:29.667Z,97219.42
2023-03-16T12:36:18.380Z,97222.59
2023-03-16T12:39:06.103Z,97222.78
2023-03-16T12:42:05.371Z,97217.39
2023-03-16T12:44:52.001Z,97224.30
2023-03-16T12:47:35.382Z,97232.79
2023-03-16T12:50:07.721Z,97229.70
2023-03-16T12:52:46.425Z,97236.38
2023-03-16T12:55:29.039Z,97235.77
2023-03-16T12:58:06.986Z,97238.31
2023-03-16T13:00:40.857Z,97238.12
2023-03-16T13:03:16.725Z,97245.71
2023-03-16T13:05:51.900Z,97248.94
2023-03-16T13:08:21.043Z,97256.16
2023-03-16T13:11:05.967Z,97255.47
2023-03-16T13:13:33.950Z,97250.95
2023-03-16T13:16:12.631Z,97255.04
2023-03-16T13:18:44.031Z,97255.83
2023-03-16T13:21:23.659Z,97257.99
2023-03-16T13:23:58.941Z,97263.80
2023-03-16T13:26:42.841Z,97262.05
2023-03-16T13:29:30.607Z,97264.29
2023-03-16T13:32:12.815Z,97268.61
2023-03-16T13:34:51.384Z,97272.38
2023-03-16T13:37:21.339Z,97274.38
2023-03-16T13:40:00.555Z,97268.67
2023-03-16T13:42:33.651Z,97276.83
2023-03-16T13:45:15.421Z,97278.72
2023-03-16T13:47:44.896Z,97277.53
2023-03-16T13:50:15.662Z,97283.01
2023-03-16T13:52:53.872Z,97282.94
2023-03-16T13:55:31.930Z,97287.73
2023-03-16T13:58:01.144Z,97289.14
2023-03-16T14:00:36.529Z,97291.08
2023-03-16T14:03:15.683Z,97296.83
2023-03-16T14:05:44.738Z,97289.91
2023-03-16T14:08:19.909Z,97295.30
2023-03-16T14:10:48.723Z,97303.09
2023-03-16T14:13:36.041Z,97301.84
2023-03-16T14:16:17.142Z,97303.77
2023-03-16T14:18:48.152Z,97306.76
2023-03-16T14:21:29.883Z,97310.41
2023-03-16T14:24:07.188Z,97306.45
2023-03-16T14:26:46.971Z,97312.58
2023-03-16T14:29:31.903Z,97318.55
2023-03-16T14:31:59.926Z,97319.76
2023-03-16T14:34:32.156Z,97319.59
2023-03-16T14:37:09.534Z,97322.72
2023-03-16T14:39:39.836Z,97323.15
2023-03-16T14:42:30.789Z,97325.27
2023-03-16T14:45:02.292Z,97327.59
2023-03-16T14:47:33.480Z,97335.05
2023-03-16T14:50:06.627Z,97339.52
2023-03-16T14:52:35.031Z,97339.80
2023-03-16T14:55:14.205Z,97341.50
2023-03-16T14:57:44.729Z,97341.63
2023-03-16T15:00:16.235Z,97347.80
2023-03-16T15:03:07.102Z,97351.06
2023-03-16T15:05:38.906Z,97355.44
2023-03-16T15:08:26.740Z,97360.67
2023-03-16T15:10:58.455Z,97357.02
2023-03-16T15:13:46.026Z,97359.95
2023-03-16T15:16:16.430Z,97361.30
2023-03-16T15:18:44.139Z,97364.84
2023-03-16T15:21:22.196Z,97371.67
2023-03-16T15:23:50.257Z,97370.73
2023-03-16T15:26:25.041Z,97374.05
2023-03-16T15:28:52.135Z,97380.58
2023-03-16T15:31:20.362Z,97384.48
2023-03-16T15:33:48.592Z,97390.76
2023-03-16T15:36:20.419Z,97391.08
2023-03-16T15:38:51.716Z,97398.39
2023-03-16T15:41:19.993Z,97401.64
2023-03-16T15:43:47.605Z,97400.07
2023-03-16T15:46:16.038Z,97405.69
2023-03-16T15:48:43.841Z,97404.69
2023-03-16T15:51:20.140Z,97415.36
2023-03-16T15:53:58.988Z,97416.94
2023-03-16T15:56:33.559Z,97415.09
2023-03-16T15:59:05.750Z,97420.36
2023-03-16T16:01:47.263Z,97425.22
2023-03-16T16:04:22.994Z,97433.47
2023-03-16T16:06:56.360Z,97433.81
2023-03-16T16:09:25.069Z,97437.84
2023-03-16T16:11:53.076Z,97440.55
2023-03-16T16:14:24.401Z,97443.76
2023-03-16T16:16:53.774Z,97452.06
2023-03-16T16:19:21.750Z,97455.77
2023-03-16T16:21:52.487Z,97455.53
2023-03-16T16:24:20.196Z,97468.36
2023-03-16T16:26:55.314Z,97471.09
2023-03-16T16:29:25.170Z,97472.14
2023-03-16T16:31:53.203Z,97474.27
2023-03-16T16:34:23.992Z,97476.42
2023-03-16T16:36:52.091Z,97479.33
2023-03-16T16:39:20.498Z,97484.91
2023-03-16T16:41:51.091Z,97489.98
2023-03-16T16:44:26.704Z,97492.38
2023-03-16T16:46:55.034Z,97501.16
2023-03-16T16:49:30.492Z,97502.50
2023-03-16T16:51:58.606Z,97508.66
2023-03-16T16:54:30.494Z,97509.99
2023-03-16T16:57:00.578Z,97512.69
2023-03-16T16:59:36.350Z,97520.94
2023-03-16T17:02:31.154Z,97528.12
2023-03-16T17:04:59.361Z,97520.70
2023-03-16T17:07:27.384Z,97524.16
2023-03-16T17:09:55.816Z,97535.86
2023-03-16T17:12:24.552Z,97542.02
2023-03-16T17:14:52.191Z,97538.50
2023-03-16T17:17:21.841Z,97544.08
2023-03-16T17:19:49.736Z,97552.36
2023-03-16T17:22:27.721Z,97552.39
2023-03-16T17:24:55.719Z,97555.39
2023-03-16T17:27:32.571Z,97563.20
2023-03-16T17:30:00.286Z,97570.22
2023-03-16T17:32:28.239Z,97578.63
2023-03-16T17:34:56.227Z,97586.48
2023-03-16T17:37:24.381Z,97580.75
2023-03-16T17:39:57.301Z,97584.79
2023-03-16T17:42:25.951Z,97587.77
2023-03-16T17:44:53.905Z,97593.20
2023-03-16T17:47:25.863Z,97589.78
2023-03-16T17:49:54.142Z,97591.67
2023-03-16T17:52:25.550Z,97596.75
2023-03-16T17:54:54.336Z,97611.16
2023-03-16T17:57:29.346Z,97607.41
2023-03-16T17:59:57.996Z,97619.65
2023-03-16T18:02:40.500Z,97623.10
2023-03-16T18:05:21.653Z,97624.96
2023-03-16T18:07:51.232Z,97627.38
2023-03-16T18:10:24.318Z,97631.64
2023-03-16T18:13:03.312Z,97643.38
2023-03-16T18:15:35.992Z,97638.05
2023-03-16T18:18:09.809Z,97637.50
2023-03-16T18:20:37.702Z,97638.78
2023-03-16T18:23:25.584Z,97643.60
2023-03-16T18:26:02.594Z,97647.85
2023-03-16T18:28:31.396Z,97649.44
2023-03-16T18:31:01.003Z,97656.09
2023-03-16T18:33:36.173Z,97654.77
2023-03-16T18:36:08.997Z,97664.94
2023-03-16T18:38:40.887Z,97669.20
2023-03-16T18:41:27.011Z,97667.09
2023-03-16T18:43:58.420Z,97674.59
2023-03-16T18:46:33.967Z,97673.53
2023-03-16T18:49:20.106Z,97679.47
2023-03-16T18:51:52.916Z,97681.90
2023-03-16T18:54:28.297Z,97683.26
2023-03-16T18:56:57.544Z,97685.44
2023-03-16T18:59:27.109Z,97687.07
2023-03-16T19:01:55.099Z,97682.30
2023-03-16T19:04:29.750Z,97687.14
2023-03-16T19:06:58.946Z,97688.48
2023-03-16T19:09:30.509Z,97694.38
2023-03-16T19:11:59.159Z,97691.75
2023-03-16T19:14:34.445Z,97689.63
2023-03-16T19:17:02.221Z,97698.72
2023-03-16T19:19:30.199Z,97706.17
2023-03-16T19:22:07.597Z,97706.17
2023-03-16T19:24:52.595Z,97702.22
2023-03-16T19:27:31.833Z,97711.54
2023-03-16T19:29:59.753Z,97709.42
2023-03-16T19:32:27.621Z,97717.92
2023-03-16T19:34:55.335Z,97719.30
2023-03-16T19:37:24.657Z,97722.75
2023-03-16T19:39:52.286Z,97721.97
2023-03-16T19:42:36.629Z,97726.50
2023-03-16T19:45:06.463Z,97722.52
2023-03-16T19:47:35.673Z,97729.70
2023-03-16T19:50:15.376Z,97731.05
2023-03-16T19:52:43.567Z,97736.12
2023-03-16T19:55:22.581Z,97738.78
2023-03-16T19:57:55.747Z,97745.19
2023-03-16T20:00:26.555Z,97745.72
2023-03-16T20:02:56.657Z,97749.19
2023-03-16T20:05:29.308Z,97748.14
2023-03-16T20:08:00.991Z,97753.97
2023-03-16T20:10:32.241Z,97763.04
2023-03-16T20:13:01.562Z,97759.34
2023-03-16T20:15:32.815Z,97763.33
2023-03-16T20:18:00.711Z,97764.12
2023-03-16T20:20:33.603Z,97766.00
2023-03-16T20:23:01.587Z,97771.86
2023-03-16T20:25:32.017Z,97767.62
2023-03-16T20:28:03.327Z,97773.48
2023-03-16T20:30:31.442Z,97773.48
2023-03-16T20:32:59.264Z,97772.16
2023-03-16T20:35:32.084Z,97777.47
2023-03-16T20:38:00.465Z,97778.55
2023-03-16T20:40:28.473Z,97781.78
2023-03-16T20:42:56.223Z,97780.17
2023-03-16T20:45:28.067Z,97786.57
2023-03-16T20:47:56.381Z,97789.52
2023-03-16T20:50:28.824Z,97793.51
2023-03-16T20:52:57.408Z,97792.43
2023-03-16T20:55:28.564Z,97795.09
2023-03-16T20:57:57.192Z,97800.41
2023-03-16T21:00:35.892Z,97798.58
2023-03-16T21:03:16.312Z,97794.05
2023-03-16T21:05:45.670Z,97794.05
2023-03-16T21:08:15.218Z,97803.89
2023-03-16T21:10:46.461Z,97804.97
2023-03-16T21:13:30.880Z,97803.89
2023-03-16T21:16:01.869Z,97802.84
2023-03-16T21:18:30.873Z,97803.64
2023-03-16T21:20:58.464Z,97805.00
2023-03-16T21:23:27.135Z,97806.86
2023-03-16T21:25:58.590Z,97810.59
2023-03-16T21:28:28.521Z,97806.06
2023-03-16T21:30:58.362Z,97813.52
2023-03-16T21:33:39.665Z,97816.20
2023-03-16T21:36:15.586Z,97821.52
2023-03-16T21:38:43.824Z,97818.59
2023-03-16T21:41:12.200Z,97817.81
2023-03-16T21:43:42.388Z,97822.32
2023-03-16T21:46:20.227Z,97819.92
2023-03-16T21:48:54.252Z,97827.11
2023-03-16T21:51:28.084Z,97829.77
2023-03-16T21:53:55.845Z,97833.21
2023-03-16T21:56:25.598Z,97830.00
2023-03-16T21:58:55.631Z,97836.39
2023-03-16T22:01:32.464Z,97831.04
2023-03-16T22:04:08.427Z,97836.89
2023-03-16T22:06:36.362Z,97838.47
2023-03-16T22:09:04.275Z,97845.07
2023-03-16T22:11:32.072Z,97846.66
2023-03-16T22:14:00.956Z,97842.14
2023-03-16T22:16:32.992Z,97846.10
2023-03-16T22:19:00.790Z,97849.55
2023-03-16T22:21:38.305Z,97851.39
2023-03-16T22:24:13.451Z,97846.88
2023-03-16T22:26:41.257Z,97845.51
2023-03-16T22:29:29.629Z,97849.50
2023-03-16T22:32:03.536Z,97860.34
2023-03-16T22:34:42.128Z,97855.27
2023-03-16T22:37:13.886Z,97860.83
2023-03-16T22:39:41.698Z,97866.89
2023-03-16T22:42:32.815Z,97869.00
2023-03-16T22:45:00.744Z,97868.45
2023-03-16T22:47:33.568Z,97870.80
2023-03-16T22:50:01.324Z,97881.38
2023-03-16T22:52:32.952Z,97877.36
2023-03-16T22:55:03.977Z,97880.49
2023-03-16T22:57:32.165Z,97879.67
2023-03-16T23:00:03.467Z,97881.75
2023-03-16T23:02:31.689Z,97887.00
2023-03-16T23:04:59.384Z,97881.67
2023-03-16T23:07:27.026Z,97888.80
2023-03-16T23:09:55.214Z,97887.98
2023-03-16T23:12:22.956Z,97895.90
2023-03-16T23:14:50.548Z,97896.93
2023-03-16T23:17:21.538Z,97899.84
2023-03-16T23:19:49.453Z,97905.12
2023-03-16T23:22:17.139Z,97905.35
2023-03-16T23:24:45.247Z,97906.38
2023-03-16T23:27:17.942Z,97910.33
2023-03-16T23:29:46.189Z,97919.59
2023-03-16T23:32:16.574Z,97913.47
2023-03-16T23:34:44.747Z,97918.20
2023-03-16T23:37:12.395Z,97919.00
2023-03-16T23:39:40.238Z,97922.15
2023-03-16T23:42:08.702Z,97926.66
2023-03-16T23:44:36.817Z,97925.82
2023-03-16T23:47:04.913Z,97922.58
2023-03-16T23:49:36.467Z,97925.48
2023-03-16T23:52:05.129Z,97929.69
2023-03-16T23:54:32.841Z,97934.64
2023-03-16T23:57:00.480Z,97938.05
2023-03-16T23:59:28.230Z,97940.09
